Edgerton, Minnesota
Current Conditions -  °F | °C
As of 3:54 AM on Sunday 21 Dec 2014 (Local Time) from KPQN Reporting Station
Light Snow Light Snow  
Wind Chill: -4°   Ceiling: 100
Heat Index: -1°   Visibility: 0.25mi
Dew Point: -1°   Wind: 5mph
Humidity: 100%   Direction: 190°S
Pressure: 29.83"   Gusts: NA
Location:  43.87°N, 96.13°W
Report Text: KPQN 210954Z AUTO 19004KT 1/4SM -SN OVC001 M01/M01 A2983 RMK AO2
Loading
Personal Weather Stations






























Interactive Weather Map New forecast layout! Learn more

10-Day Weather Forecast

Advertisements
Track Severe Weather on mobile